sensor_id;sensor_type;location;lat;lon;timestamp;P1;durP1;ratioP1;P2;durP2;ratioP2
12758;SDS011;20944;47.048;15.390;2023-05-10T00:00:07;0.67;;;0.67;;
12758;SDS011;20944;47.048;15.390;2023-05-10T00:02:36;1.83;;;1.03;;
12758;SDS011;20944;47.048;15.390;2023-05-10T00:05:05;2.20;;;1.10;;
12758;SDS011;20944;47.048;15.390;2023-05-10T00:07:34;1.80;;;1.47;;
12758;SDS011;20944;47.048;15.390;2023-05-10T00:10:03;1.37;;;1.07;;
12758;SDS011;20944;47.048;15.390;2023-05-10T00:12:31;1.93;;;1.13;;
12758;SDS011;20944;47.048;15.390;2023-05-10T00:15:02;1.83;;;1.30;;
12758;SDS011;20944;47.048;15.390;2023-05-10T00:17:31;1.07;;;0.97;;
12758;SDS011;20944;47.048;15.390;2023-05-10T00:19:59;2.10;;;1.13;;
12758;SDS011;20944;47.048;15.390;2023-05-10T00:22:27;1.47;;;0.93;;
12758;SDS011;20944;47.048;15.390;2023-05-10T00:24:55;1.80;;;1.10;;
12758;SDS011;20944;47.048;15.390;2023-05-10T00:27:24;1.80;;;1.30;;
12758;SDS011;20944;47.048;15.390;2023-05-10T00:29:52;3.30;;;1.13;;
12758;SDS011;20944;47.048;15.390;2023-05-10T00:32:22;1.70;;;1.17;;
12758;SDS011;20944;47.048;15.390;2023-05-10T00:34:50;1.93;;;1.17;;
12758;SDS011;20944;47.048;15.390;2023-05-10T00:37:18;1.17;;;1.07;;
12758;SDS011;20944;47.048;15.390;2023-05-10T00:39:47;2.50;;;1.10;;
12758;SDS011;20944;47.048;15.390;2023-05-10T00:42:15;1.60;;;0.90;;
12758;SDS011;20944;47.048;15.390;2023-05-10T00:44:43;1.80;;;1.10;;
12758;SDS011;20944;47.048;15.390;2023-05-10T00:47:13;1.57;;;1.30;;
12758;SDS011;20944;47.048;15.390;2023-05-10T00:49:43;1.23;;;1.10;;
12758;SDS011;20944;47.048;15.390;2023-05-10T00:52:12;1.97;;;1.47;;
12758;SDS011;20944;47.048;15.390;2023-05-10T00:54:40;1.77;;;1.20;;
12758;SDS011;20944;47.048;15.390;2023-05-10T00:57:09;1.67;;;1.17;;
12758;SDS011;20944;47.048;15.390;2023-05-10T00:59:38;1.30;;;0.90;;
12758;SDS011;20944;47.048;15.390;2023-05-10T01:02:06;2.07;;;1.30;;
12758;SDS011;20944;47.048;15.390;2023-05-10T01:04:35;1.67;;;1.00;;
12758;SDS011;20944;47.048;15.390;2023-05-10T01:07:05;1.40;;;1.30;;
12758;SDS011;20944;47.048;15.390;2023-05-10T01:09:33;1.53;;;1.20;;
12758;SDS011;20944;47.048;15.390;2023-05-10T01:12:02;1.83;;;0.83;;
12758;SDS011;20944;47.048;15.390;2023-05-10T01:14:33;1.63;;;1.13;;
12758;SDS011;20944;47.048;15.390;2023-05-10T01:17:04;2.20;;;1.00;;
12758;SDS011;20944;47.048;15.390;2023-05-10T01:19:34;1.30;;;0.97;;
12758;SDS011;20944;47.048;15.390;2023-05-10T01:22:07;1.30;;;0.90;;
12758;SDS011;20944;47.048;15.390;2023-05-10T01:24:55;1.23;;;1.03;;
12758;SDS011;20944;47.048;15.390;2023-05-10T01:33:54;2.93;;;1.00;;
12758;SDS011;20944;47.048;15.390;2023-05-10T01:36:27;1.67;;;1.10;;
12758;SDS011;20944;47.048;15.390;2023-05-10T01:39:00;1.20;;;0.87;;
12758;SDS011;20944;47.048;15.390;2023-05-10T01:41:39;2.33;;;1.53;;
12758;SDS011;20944;47.048;15.390;2023-05-10T01:44:15;1.20;;;0.97;;
12758;SDS011;20944;47.048;15.390;2023-05-10T01:46:49;2.23;;;1.27;;
12758;SDS011;20944;47.048;15.390;2023-05-10T01:49:23;2.40;;;1.33;;
12758;SDS011;20944;47.048;15.390;2023-05-10T01:51:54;1.60;;;1.10;;
12758;SDS011;20944;47.048;15.390;2023-05-10T01:54:28;1.43;;;1.10;;
12758;SDS011;20944;47.048;15.390;2023-05-10T01:56:58;5.77;;;1.77;;
12758;SDS011;20944;47.048;15.390;2023-05-10T01:59:33;2.57;;;1.33;;
12758;SDS011;20944;47.048;15.390;2023-05-10T02:02:05;3.27;;;1.10;;
12758;SDS011;20944;47.048;15.390;2023-05-10T02:04:40;1.57;;;1.10;;
12758;SDS011;20944;47.048;15.390;2023-05-10T02:07:09;1.73;;;1.10;;
12758;SDS011;20944;47.048;15.390;2023-05-10T02:09:38;1.53;;;1.00;;
12758;SDS011;20944;47.048;15.390;2023-05-10T02:12:08;2.67;;;1.30;;
12758;SDS011;20944;47.048;15.390;2023-05-10T02:14:37;2.60;;;1.30;;
12758;SDS011;20944;47.048;15.390;2023-05-10T02:17:09;1.73;;;1.40;;
12758;SDS011;20944;47.048;15.390;2023-05-10T02:19:38;1.83;;;1.10;;
12758;SDS011;20944;47.048;15.390;2023-05-10T02:22:10;2.00;;;1.30;;
12758;SDS011;20944;47.048;15.390;2023-05-10T02:24:40;2.33;;;0.87;;
12758;SDS011;20944;47.048;15.390;2023-05-10T02:27:09;2.13;;;1.30;;
12758;SDS011;20944;47.048;15.390;2023-05-10T02:29:39;1.60;;;0.93;;
12758;SDS011;20944;47.048;15.390;2023-05-10T02:32:07;1.40;;;1.30;;
12758;SDS011;20944;47.048;15.390;2023-05-10T02:34:38;2.53;;;1.70;;
12758;SDS011;20944;47.048;15.390;2023-05-10T02:37:09;3.27;;;1.73;;
12758;SDS011;20944;47.048;15.390;2023-05-10T02:39:38;2.27;;;0.93;;
12758;SDS011;20944;47.048;15.390;2023-05-10T02:42:11;2.20;;;1.47;;
12758;SDS011;20944;47.048;15.390;2023-05-10T02:44:43;2.47;;;1.10;;
12758;SDS011;20944;47.048;15.390;2023-05-10T02:47:15;1.70;;;1.07;;
12758;SDS011;20944;47.048;15.390;2023-05-10T02:49:45;2.00;;;1.00;;
12758;SDS011;20944;47.048;15.390;2023-05-10T02:52:16;2.00;;;1.20;;
12758;SDS011;20944;47.048;15.390;2023-05-10T02:54:52;1.90;;;1.20;;
12758;SDS011;20944;47.048;15.390;2023-05-10T02:57:25;1.47;;;1.20;;
12758;SDS011;20944;47.048;15.390;2023-05-10T02:59:59;2.50;;;1.10;;
12758;SDS011;20944;47.048;15.390;2023-05-10T03:02:29;1.60;;;1.40;;
12758;SDS011;20944;47.048;15.390;2023-05-10T03:04:59;2.10;;;1.23;;
12758;SDS011;20944;47.048;15.390;2023-05-10T03:07:28;2.93;;;1.20;;
12758;SDS011;20944;47.048;15.390;2023-05-10T03:09:57;2.40;;;1.23;;
12758;SDS011;20944;47.048;15.390;2023-05-10T03:12:27;2.27;;;1.07;;
12758;SDS011;20944;47.048;15.390;2023-05-10T03:15:07;2.10;;;1.40;;
12758;SDS011;20944;47.048;15.390;2023-05-10T03:17:45;1.20;;;1.00;;
12758;SDS011;20944;47.048;15.390;2023-05-10T03:20:22;5.23;;;1.37;;
12758;SDS011;20944;47.048;15.390;2023-05-10T03:22:55;2.67;;;1.17;;
12758;SDS011;20944;47.048;15.390;2023-05-10T03:25:26;2.87;;;1.17;;
12758;SDS011;20944;47.048;15.390;2023-05-10T03:27:56;1.73;;;1.33;;
12758;SDS011;20944;47.048;15.390;2023-05-10T03:30:25;2.27;;;1.50;;
12758;SDS011;20944;47.048;15.390;2023-05-10T03:32:54;2.37;;;1.37;;
12758;SDS011;20944;47.048;15.390;2023-05-10T03:35:24;2.20;;;1.20;;
12758;SDS011;20944;47.048;15.390;2023-05-10T03:37:53;2.63;;;1.30;;
12758;SDS011;20944;47.048;15.390;2023-05-10T03:40:21;1.17;;;1.07;;
12758;SDS011;20944;47.048;15.390;2023-05-10T03:42:50;1.47;;;0.90;;
12758;SDS011;20944;47.048;15.390;2023-05-10T03:45:18;2.27;;;1.40;;
12758;SDS011;20944;47.048;15.390;2023-05-10T03:47:46;2.83;;;1.23;;
12758;SDS011;20944;47.048;15.390;2023-05-10T03:50:15;4.63;;;1.20;;
12758;SDS011;20944;47.048;15.390;2023-05-10T03:52:45;1.83;;;1.17;;
12758;SDS011;20944;47.048;15.390;2023-05-10T03:55:13;1.73;;;1.10;;
12758;SDS011;20944;47.048;15.390;2023-05-10T03:57:42;1.67;;;1.27;;
12758;SDS011;20944;47.048;15.390;2023-05-10T04:00:11;3.40;;;1.87;;
12758;SDS011;20944;47.048;15.390;2023-05-10T04:02:40;2.00;;;1.50;;
12758;SDS011;20944;47.048;15.390;2023-05-10T04:05:11;1.67;;;1.30;;
12758;SDS011;20944;47.048;15.390;2023-05-10T04:07:40;1.80;;;1.33;;
12758;SDS011;20944;47.048;15.390;2023-05-10T04:10:10;2.27;;;1.47;;
12758;SDS011;20944;47.048;15.390;2023-05-10T04:12:39;2.47;;;1.50;;
12758;SDS011;20944;47.048;15.390;2023-05-10T04:15:09;2.13;;;1.47;;
12758;SDS011;20944;47.048;15.390;2023-05-10T04:17:37;2.03;;;1.47;;
12758;SDS011;20944;47.048;15.390;2023-05-10T04:20:06;1.83;;;1.43;;
12758;SDS011;20944;47.048;15.390;2023-05-10T04:22:35;3.50;;;1.47;;
12758;SDS011;20944;47.048;15.390;2023-05-10T04:25:04;2.30;;;1.23;;
12758;SDS011;20944;47.048;15.390;2023-05-10T04:27:35;6.00;;;1.70;;
12758;SDS011;20944;47.048;15.390;2023-05-10T04:30:03;2.03;;;1.20;;
12758;SDS011;20944;47.048;15.390;2023-05-10T04:32:33;3.30;;;1.83;;
12758;SDS011;20944;47.048;15.390;2023-05-10T04:35:01;2.63;;;1.43;;
12758;SDS011;20944;47.048;15.390;2023-05-10T04:37:30;2.10;;;1.20;;
12758;SDS011;20944;47.048;15.390;2023-05-10T04:39:58;3.37;;;1.60;;
12758;SDS011;20944;47.048;15.390;2023-05-10T04:42:27;2.57;;;1.67;;
12758;SDS011;20944;47.048;15.390;2023-05-10T04:44:57;2.47;;;1.83;;
12758;SDS011;20944;47.048;15.390;2023-05-10T04:47:25;2.73;;;1.70;;
12758;SDS011;20944;47.048;15.390;2023-05-10T04:49:53;2.43;;;1.50;;
12758;SDS011;20944;47.048;15.390;2023-05-10T04:52:21;4.33;;;1.80;;
12758;SDS011;20944;47.048;15.390;2023-05-10T04:54:50;2.37;;;2.10;;
12758;SDS011;20944;47.048;15.390;2023-05-10T04:57:18;3.47;;;1.93;;
12758;SDS011;20944;47.048;15.390;2023-05-10T04:59:46;1.97;;;1.77;;
12758;SDS011;20944;47.048;15.390;2023-05-10T05:02:17;2.90;;;2.23;;
12758;SDS011;20944;47.048;15.390;2023-05-10T05:04:45;2.13;;;1.90;;
12758;SDS011;20944;47.048;15.390;2023-05-10T05:07:14;3.17;;;1.63;;
12758;SDS011;20944;47.048;15.390;2023-05-10T05:09:42;1.83;;;1.53;;
12758;SDS011;20944;47.048;15.390;2023-05-10T05:12:10;2.50;;;1.90;;
12758;SDS011;20944;47.048;15.390;2023-05-10T05:14:40;2.80;;;1.90;;
12758;SDS011;20944;47.048;15.390;2023-05-10T05:17:09;3.43;;;2.27;;
12758;SDS011;20944;47.048;15.390;2023-05-10T05:19:39;4.47;;;1.97;;
12758;SDS011;20944;47.048;15.390;2023-05-10T05:22:07;3.00;;;1.80;;
12758;SDS011;20944;47.048;15.390;2023-05-10T05:24:36;3.30;;;2.27;;
12758;SDS011;20944;47.048;15.390;2023-05-10T05:27:05;4.50;;;2.03;;
12758;SDS011;20944;47.048;15.390;2023-05-10T05:29:33;4.13;;;1.80;;
12758;SDS011;20944;47.048;15.390;2023-05-10T05:32:01;3.57;;;2.40;;
12758;SDS011;20944;47.048;15.390;2023-05-10T05:34:30;3.50;;;2.30;;
12758;SDS011;20944;47.048;15.390;2023-05-10T05:37:00;2.47;;;1.83;;
12758;SDS011;20944;47.048;15.390;2023-05-10T05:39:28;6.07;;;2.47;;
12758;SDS011;20944;47.048;15.390;2023-05-10T05:41:57;2.43;;;2.23;;
12758;SDS011;20944;47.048;15.390;2023-05-10T05:44:25;5.73;;;1.93;;
12758;SDS011;20944;47.048;15.390;2023-05-10T05:46:55;4.13;;;2.33;;
12758;SDS011;20944;47.048;15.390;2023-05-10T05:49:23;2.53;;;2.00;;
12758;SDS011;20944;47.048;15.390;2023-05-10T05:51:51;5.00;;;2.17;;
12758;SDS011;20944;47.048;15.390;2023-05-10T05:54:21;3.83;;;2.20;;
12758;SDS011;20944;47.048;15.390;2023-05-10T05:56:50;2.87;;;2.03;;
12758;SDS011;20944;47.048;15.390;2023-05-10T05:59:18;3.70;;;2.50;;
12758;SDS011;20944;47.048;15.390;2023-05-10T06:01:47;4.83;;;1.90;;
12758;SDS011;20944;47.048;15.390;2023-05-10T06:04:15;5.77;;;2.23;;
12758;SDS011;20944;47.048;15.390;2023-05-10T06:06:44;3.77;;;2.70;;
12758;SDS011;20944;47.048;15.390;2023-05-10T06:09:12;2.17;;;1.90;;
12758;SDS011;20944;47.048;15.390;2023-05-10T06:11:42;2.87;;;1.97;;
12758;SDS011;20944;47.048;15.390;2023-05-10T06:14:11;2.50;;;2.20;;
12758;SDS011;20944;47.048;15.390;2023-05-10T06:16:39;2.80;;;2.23;;
12758;SDS011;20944;47.048;15.390;2023-05-10T06:19:07;3.40;;;2.30;;
12758;SDS011;20944;47.048;15.390;2023-05-10T06:21:36;2.77;;;2.10;;
12758;SDS011;20944;47.048;15.390;2023-05-10T06:24:05;3.10;;;2.33;;
12758;SDS011;20944;47.048;15.390;2023-05-10T06:26:33;4.77;;;3.03;;
12758;SDS011;20944;47.048;15.390;2023-05-10T06:29:03;3.30;;;2.30;;
12758;SDS011;20944;47.048;15.390;2023-05-10T06:31:33;2.53;;;2.23;;
12758;SDS011;20944;47.048;15.390;2023-05-10T06:34:01;1.73;;;1.63;;
12758;SDS011;20944;47.048;15.390;2023-05-10T06:36:29;5.10;;;2.63;;
12758;SDS011;20944;47.048;15.390;2023-05-10T06:38:57;1.80;;;1.70;;
12758;SDS011;20944;47.048;15.390;2023-05-10T06:41:26;2.13;;;1.93;;
12758;SDS011;20944;47.048;15.390;2023-05-10T06:43:54;2.77;;;1.97;;
12758;SDS011;20944;47.048;15.390;2023-05-10T06:46:23;3.33;;;1.90;;
12758;SDS011;20944;47.048;15.390;2023-05-10T06:48:52;3.07;;;2.37;;
12758;SDS011;20944;47.048;15.390;2023-05-10T06:51:20;3.53;;;2.00;;
12758;SDS011;20944;47.048;15.390;2023-05-10T06:53:48;4.30;;;2.23;;
12758;SDS011;20944;47.048;15.390;2023-05-10T06:56:16;3.70;;;2.40;;
12758;SDS011;20944;47.048;15.390;2023-05-10T06:58:47;4.43;;;1.80;;
12758;SDS011;20944;47.048;15.390;2023-05-10T07:01:16;3.40;;;1.63;;
12758;SDS011;20944;47.048;15.390;2023-05-10T07:03:46;2.37;;;2.03;;
12758;SDS011;20944;47.048;15.390;2023-05-10T07:06:14;2.10;;;1.70;;
12758;SDS011;20944;47.048;15.390;2023-05-10T07:08:57;5.00;;;2.30;;
12758;SDS011;20944;47.048;15.390;2023-05-10T07:11:26;2.60;;;2.00;;
12758;SDS011;20944;47.048;15.390;2023-05-10T07:13:54;4.57;;;2.33;;
12758;SDS011;20944;47.048;15.390;2023-05-10T07:16:22;3.53;;;2.10;;
12758;SDS011;20944;47.048;15.390;2023-05-10T07:18:52;5.50;;;2.50;;
12758;SDS011;20944;47.048;15.390;2023-05-10T07:21:20;2.60;;;2.30;;
12758;SDS011;20944;47.048;15.390;2023-05-10T07:23:50;2.17;;;1.90;;
12758;SDS011;20944;47.048;15.390;2023-05-10T07:26:19;3.03;;;2.00;;
12758;SDS011;20944;47.048;15.390;2023-05-10T07:28:47;3.67;;;2.23;;
12758;SDS011;20944;47.048;15.390;2023-05-10T07:31:15;5.47;;;2.10;;
12758;SDS011;20944;47.048;15.390;2023-05-10T07:33:44;2.63;;;2.10;;
12758;SDS011;20944;47.048;15.390;2023-05-10T07:36:13;5.87;;;2.07;;
12758;SDS011;20944;47.048;15.390;2023-05-10T07:38:41;2.93;;;2.13;;
12758;SDS011;20944;47.048;15.390;2023-05-10T07:41:11;2.40;;;2.10;;
12758;SDS011;20944;47.048;15.390;2023-05-10T07:43:39;2.00;;;1.83;;
12758;SDS011;20944;47.048;15.390;2023-05-10T07:46:07;3.20;;;2.00;;
12758;SDS011;20944;47.048;15.390;2023-05-10T07:48:37;4.30;;;2.03;;
12758;SDS011;20944;47.048;15.390;2023-05-10T07:51:05;3.03;;;2.27;;
12758;SDS011;20944;47.048;15.390;2023-05-10T07:53:37;3.07;;;2.13;;
12758;SDS011;20944;47.048;15.390;2023-05-10T07:56:19;4.17;;;2.17;;
12758;SDS011;20944;47.048;15.390;2023-05-10T07:58:48;3.73;;;2.40;;
12758;SDS011;20944;47.048;15.390;2023-05-10T08:01:17;4.63;;;2.47;;
12758;SDS011;20944;47.048;15.390;2023-05-10T08:03:45;3.70;;;2.37;;
12758;SDS011;20944;47.048;15.390;2023-05-10T08:06:14;5.73;;;2.60;;
12758;SDS011;20944;47.048;15.390;2023-05-10T08:08:46;4.23;;;2.77;;
12758;SDS011;20944;47.048;15.390;2023-05-10T08:11:16;3.63;;;2.37;;
12758;SDS011;20944;47.048;15.390;2023-05-10T08:13:45;2.90;;;2.37;;
12758;SDS011;20944;47.048;15.390;2023-05-10T08:16:13;3.43;;;2.17;;
12758;SDS011;20944;47.048;15.390;2023-05-10T08:18:42;3.43;;;2.33;;
12758;SDS011;20944;47.048;15.390;2023-05-10T08:21:12;3.43;;;2.30;;
12758;SDS011;20944;47.048;15.390;2023-05-10T08:23:40;3.53;;;2.23;;
12758;SDS011;20944;47.048;15.390;2023-05-10T08:26:11;3.53;;;2.63;;
12758;SDS011;20944;47.048;15.390;2023-05-10T08:28:40;2.93;;;2.40;;
12758;SDS011;20944;47.048;15.390;2023-05-10T08:31:08;4.00;;;2.27;;
12758;SDS011;20944;47.048;15.390;2023-05-10T08:33:36;6.17;;;3.37;;
12758;SDS011;20944;47.048;15.390;2023-05-10T08:36:06;3.72;;;2.17;;
12758;SDS011;20944;47.048;15.390;2023-05-10T08:38:34;3.67;;;2.00;;
12758;SDS011;20944;47.048;15.390;2023-05-10T08:41:02;3.03;;;2.40;;
12758;SDS011;20944;47.048;15.390;2023-05-10T08:43:34;3.17;;;1.80;;
12758;SDS011;20944;47.048;15.390;2023-05-10T08:46:04;2.30;;;1.83;;
12758;SDS011;20944;47.048;15.390;2023-05-10T08:48:33;2.67;;;1.80;;
12758;SDS011;20944;47.048;15.390;2023-05-10T08:51:02;5.00;;;1.95;;
12758;SDS011;20944;47.048;15.390;2023-05-10T08:53:32;2.03;;;1.30;;
12758;SDS011;20944;47.048;15.390;2023-05-10T08:56:04;2.75;;;1.48;;
12758;SDS011;20944;47.048;15.390;2023-05-10T08:58:34;2.67;;;1.98;;
12758;SDS011;20944;47.048;15.390;2023-05-10T09:01:03;1.20;;;1.10;;
12758;SDS011;20944;47.048;15.390;2023-05-10T09:03:33;2.20;;;1.20;;
12758;SDS011;20944;47.048;15.390;2023-05-10T09:06:01;2.75;;;1.63;;
12758;SDS011;20944;47.048;15.390;2023-05-10T09:08:30;2.50;;;1.55;;
12758;SDS011;20944;47.048;15.390;2023-05-10T09:10:59;2.30;;;1.52;;
12758;SDS011;20944;47.048;15.390;2023-05-10T09:13:29;2.13;;;1.80;;
12758;SDS011;20944;47.048;15.390;2023-05-10T09:15:59;2.65;;;1.27;;
12758;SDS011;20944;47.048;15.390;2023-05-10T09:18:46;3.35;;;1.15;;
12758;SDS011;20944;47.048;15.390;2023-05-10T09:21:14;3.22;;;1.13;;
12758;SDS011;20944;47.048;15.390;2023-05-10T09:23:43;1.42;;;1.33;;
12758;SDS011;20944;47.048;15.390;2023-05-10T09:26:13;1.60;;;1.23;;
12758;SDS011;20944;47.048;15.390;2023-05-10T09:28:52;3.10;;;1.33;;
12758;SDS011;20944;47.048;15.390;2023-05-10T09:31:23;2.15;;;1.23;;
12758;SDS011;20944;47.048;15.390;2023-05-10T09:33:52;1.42;;;1.10;;
12758;SDS011;20944;47.048;15.390;2023-05-10T09:36:20;1.45;;;1.30;;
12758;SDS011;20944;47.048;15.390;2023-05-10T09:38:49;3.53;;;1.70;;
12758;SDS011;20944;47.048;15.390;2023-05-10T09:41:20;2.03;;;1.55;;
12758;SDS011;20944;47.048;15.390;2023-05-10T09:43:49;2.58;;;1.42;;
12758;SDS011;20944;47.048;15.390;2023-05-10T09:46:24;1.42;;;1.27;;
12758;SDS011;20944;47.048;15.390;2023-05-10T09:48:52;1.38;;;1.27;;
12758;SDS011;20944;47.048;15.390;2023-05-10T09:51:20;1.75;;;1.40;;
12758;SDS011;20944;47.048;15.390;2023-05-10T09:53:50;2.03;;;1.30;;
12758;SDS011;20944;47.048;15.390;2023-05-10T09:56:37;1.67;;;1.42;;
12758;SDS011;20944;47.048;15.390;2023-05-10T09:59:07;4.85;;;1.92;;
12758;SDS011;20944;47.048;15.390;2023-05-10T10:01:38;2.20;;;1.48;;
12758;SDS011;20944;47.048;15.390;2023-05-10T10:04:08;1.48;;;1.38;;
12758;SDS011;20944;47.048;15.390;2023-05-10T10:06:37;2.40;;;1.70;;
12758;SDS011;20944;47.048;15.390;2023-05-10T10:09:06;3.38;;;1.30;;
12758;SDS011;20944;47.048;15.390;2023-05-10T10:11:35;3.28;;;1.70;;
12758;SDS011;20944;47.048;15.390;2023-05-10T10:14:04;1.85;;;1.30;;
12758;SDS011;20944;47.048;15.390;2023-05-10T10:16:33;1.50;;;1.40;;
12758;SDS011;20944;47.048;15.390;2023-05-10T10:19:03;2.03;;;1.58;;
12758;SDS011;20944;47.048;15.390;2023-05-10T10:21:31;2.40;;;1.60;;
12758;SDS011;20944;47.048;15.390;2023-05-10T10:24:00;4.35;;;1.40;;
12758;SDS011;20944;47.048;15.390;2023-05-10T10:26:32;1.92;;;1.70;;
12758;SDS011;20944;47.048;15.390;2023-05-10T10:29:10;3.28;;;1.90;;
12758;SDS011;20944;47.048;15.390;2023-05-10T10:31:49;2.03;;;1.75;;
12758;SDS011;20944;47.048;15.390;2023-05-10T10:34:27;1.80;;;1.60;;
12758;SDS011;20944;47.048;15.390;2023-05-10T10:36:56;3.53;;;1.95;;
12758;SDS011;20944;47.048;15.390;2023-05-10T10:39:25;1.65;;;1.55;;
12758;SDS011;20944;47.048;15.390;2023-05-10T10:41:55;3.55;;;1.85;;
12758;SDS011;20944;47.048;15.390;2023-05-10T10:44:25;2.50;;;1.98;;
12758;SDS011;20944;47.048;15.390;2023-05-10T10:47:01;1.70;;;1.55;;
12758;SDS011;20944;47.048;15.390;2023-05-10T10:49:37;1.92;;;1.73;;
12758;SDS011;20944;47.048;15.390;2023-05-10T10:52:13;3.53;;;2.35;;
12758;SDS011;20944;47.048;15.390;2023-05-10T10:54:58;3.05;;;2.10;;
12758;SDS011;20944;47.048;15.390;2023-05-10T10:57:31;5.13;;;1.90;;
12758;SDS011;20944;47.048;15.390;2023-05-10T11:00:19;2.95;;;2.13;;
12758;SDS011;20944;47.048;15.390;2023-05-10T11:02:49;2.03;;;1.83;;
12758;SDS011;20944;47.048;15.390;2023-05-10T11:08:17;2.50;;;2.28;;
12758;SDS011;20944;47.048;15.390;2023-05-10T11:10:52;3.10;;;2.38;;
12758;SDS011;20944;47.048;15.390;2023-05-10T11:13:28;4.00;;;2.40;;
12758;SDS011;20944;47.048;15.390;2023-05-10T11:15:57;5.07;;;2.30;;
12758;SDS011;20944;47.048;15.390;2023-05-10T11:18:26;3.40;;;2.03;;
12758;SDS011;20944;47.048;15.390;2023-05-10T11:20:59;2.28;;;2.00;;
12758;SDS011;20944;47.048;15.390;2023-05-10T11:23:31;2.08;;;1.83;;
12758;SDS011;20944;47.048;15.390;2023-05-10T11:26:00;2.65;;;2.45;;
12758;SDS011;20944;47.048;15.390;2023-05-10T11:28:28;3.22;;;1.90;;
12758;SDS011;20944;47.048;15.390;2023-05-10T11:30:57;2.95;;;2.33;;
12758;SDS011;20944;47.048;15.390;2023-05-10T11:33:25;2.67;;;1.75;;
12758;SDS011;20944;47.048;15.390;2023-05-10T11:35:53;2.25;;;2.05;;
12758;SDS011;20944;47.048;15.390;2023-05-10T11:38:23;2.67;;;2.28;;
12758;SDS011;20944;47.048;15.390;2023-05-10T11:40:51;2.83;;;2.20;;
12758;SDS011;20944;47.048;15.390;2023-05-10T11:43:23;2.13;;;1.92;;
12758;SDS011;20944;47.048;15.390;2023-05-10T11:45:57;2.65;;;2.17;;
12758;SDS011;20944;47.048;15.390;2023-05-10T11:48:25;2.75;;;2.30;;
12758;SDS011;20944;47.048;15.390;2023-05-10T11:50:53;2.88;;;2.00;;
12758;SDS011;20944;47.048;15.390;2023-05-10T11:53:26;2.90;;;2.50;;
12758;SDS011;20944;47.048;15.390;2023-05-10T11:55:55;2.10;;;2.00;;
12758;SDS011;20944;47.048;15.390;2023-05-10T11:58:24;2.92;;;2.55;;
12758;SDS011;20944;47.048;15.390;2023-05-10T12:00:53;2.58;;;2.38;;
12758;SDS011;20944;47.048;15.390;2023-05-10T12:03:21;4.75;;;2.55;;
12758;SDS011;20944;47.048;15.390;2023-05-10T12:05:50;2.75;;;2.08;;
12758;SDS011;20944;47.048;15.390;2023-05-10T12:08:20;2.63;;;2.22;;
12758;SDS011;20944;47.048;15.390;2023-05-10T12:10:50;2.58;;;1.83;;
12758;SDS011;20944;47.048;15.390;2023-05-10T12:13:19;3.28;;;2.20;;
12758;SDS011;20944;47.048;15.390;2023-05-10T12:15:48;3.40;;;1.83;;
12758;SDS011;20944;47.048;15.390;2023-05-10T12:18:22;2.53;;;2.15;;
12758;SDS011;20944;47.048;15.390;2023-05-10T12:20:51;1.75;;;1.65;;
12758;SDS011;20944;47.048;15.390;2023-05-10T12:23:21;2.65;;;1.65;;
12758;SDS011;20944;47.048;15.390;2023-05-10T12:25:50;2.00;;;1.80;;
12758;SDS011;20944;47.048;15.390;2023-05-10T12:28:20;2.22;;;2.03;;
12758;SDS011;20944;47.048;15.390;2023-05-10T12:30:48;1.70;;;1.60;;
12758;SDS011;20944;47.048;15.390;2023-05-10T12:33:20;2.10;;;2.00;;
12758;SDS011;20944;47.048;15.390;2023-05-10T12:35:49;3.50;;;2.13;;
12758;SDS011;20944;47.048;15.390;2023-05-10T12:38:28;3.45;;;2.00;;
12758;SDS011;20944;47.048;15.390;2023-05-10T12:40:59;1.98;;;1.75;;
12758;SDS011;20944;47.048;15.390;2023-05-10T12:43:28;6.15;;;1.55;;
12758;SDS011;20944;47.048;15.390;2023-05-10T12:45:57;2.13;;;1.58;;
12758;SDS011;20944;47.048;15.390;2023-05-10T12:48:25;4.32;;;1.98;;
12758;SDS011;20944;47.048;15.390;2023-05-10T12:50:55;4.70;;;1.83;;
12758;SDS011;20944;47.048;15.390;2023-05-10T12:53:23;1.92;;;1.80;;
12758;SDS011;20944;47.048;15.390;2023-05-10T12:55:51;1.85;;;1.75;;
12758;SDS011;20944;47.048;15.390;2023-05-10T12:58:21;4.03;;;1.85;;
12758;SDS011;20944;47.048;15.390;2023-05-10T13:01:01;3.40;;;1.95;;
12758;SDS011;20944;47.048;15.390;2023-05-10T13:03:29;3.10;;;1.85;;
12758;SDS011;20944;47.048;15.390;2023-05-10T13:05:58;2.22;;;1.98;;
12758;SDS011;20944;47.048;15.390;2023-05-10T13:08:26;2.63;;;1.67;;
12758;SDS011;20944;47.048;15.390;2023-05-10T13:10:56;2.20;;;2.00;;
12758;SDS011;20944;47.048;15.390;2023-05-10T13:13:25;2.85;;;1.83;;
12758;SDS011;20944;47.048;15.390;2023-05-10T13:15:56;3.92;;;2.05;;
12758;SDS011;20944;47.048;15.390;2023-05-10T13:18:24;2.03;;;1.80;;
12758;SDS011;20944;47.048;15.390;2023-05-10T13:20:53;1.92;;;1.75;;
12758;SDS011;20944;47.048;15.390;2023-05-10T13:23:22;3.17;;;1.85;;
12758;SDS011;20944;47.048;15.390;2023-05-10T13:25:50;2.22;;;2.03;;
12758;SDS011;20944;47.048;15.390;2023-05-10T13:28:18;1.77;;;1.67;;
12758;SDS011;20944;47.048;15.390;2023-05-10T13:30:48;2.00;;;1.63;;
12758;SDS011;20944;47.048;15.390;2023-05-10T13:33:16;2.75;;;1.98;;
12758;SDS011;20944;47.048;15.390;2023-05-10T13:35:44;1.70;;;1.60;;
12758;SDS011;20944;47.048;15.390;2023-05-10T13:38:12;2.45;;;1.65;;
12758;SDS011;20944;47.048;15.390;2023-05-10T13:40:41;4.18;;;1.80;;
12758;SDS011;20944;47.048;15.390;2023-05-10T13:43:09;2.72;;;1.98;;
12758;SDS011;20944;47.048;15.390;2023-05-10T13:45:37;2.70;;;1.70;;
12758;SDS011;20944;47.048;15.390;2023-05-10T13:48:07;1.85;;;1.73;;
12758;SDS011;20944;47.048;15.390;2023-05-10T13:50:35;2.95;;;1.60;;
12758;SDS011;20944;47.048;15.390;2023-05-10T13:53:04;2.50;;;2.30;;
12758;SDS011;20944;47.048;15.390;2023-05-10T13:55:33;3.35;;;1.85;;
12758;SDS011;20944;47.048;15.390;2023-05-10T13:58:01;1.83;;;1.60;;
12758;SDS011;20944;47.048;15.390;2023-05-10T14:00:29;2.50;;;2.10;;
12758;SDS011;20944;47.048;15.390;2023-05-10T14:02:58;2.72;;;2.45;;
12758;SDS011;20944;47.048;15.390;2023-05-10T14:05:28;2.58;;;2.38;;
12758;SDS011;20944;47.048;15.390;2023-05-10T14:07:57;1.98;;;1.70;;
12758;SDS011;20944;47.048;15.390;2023-05-10T14:10:25;5.60;;;2.08;;
12758;SDS011;20944;47.048;15.390;2023-05-10T14:12:53;3.75;;;2.75;;
12758;SDS011;20944;47.048;15.390;2023-05-10T14:15:21;2.38;;;2.28;;
12758;SDS011;20944;47.048;15.390;2023-05-10T14:17:50;3.15;;;2.42;;
12758;SDS011;20944;47.048;15.390;2023-05-10T14:20:18;2.25;;;2.15;;
12758;SDS011;20944;47.048;15.390;2023-05-10T14:22:48;4.25;;;2.53;;
12758;SDS011;20944;47.048;15.390;2023-05-10T14:25:16;2.45;;;2.25;;
12758;SDS011;20944;47.048;15.390;2023-05-10T14:27:46;2.38;;;2.20;;
12758;SDS011;20944;47.048;15.390;2023-05-10T14:30:14;2.28;;;2.10;;
12758;SDS011;20944;47.048;15.390;2023-05-10T14:32:43;2.63;;;2.42;;
12758;SDS011;20944;47.048;15.390;2023-05-10T14:35:11;2.20;;;2.00;;
12758;SDS011;20944;47.048;15.390;2023-05-10T14:37:44;5.78;;;2.08;;
12758;SDS011;20944;47.048;15.390;2023-05-10T14:40:14;2.50;;;2.20;;
12758;SDS011;20944;47.048;15.390;2023-05-10T14:42:43;2.40;;;2.20;;
12758;SDS011;20944;47.048;15.390;2023-05-10T14:45:11;4.38;;;2.08;;
12758;SDS011;20944;47.048;15.390;2023-05-10T14:47:40;3.33;;;2.50;;
12758;SDS011;20944;47.048;15.390;2023-05-10T14:50:09;3.20;;;2.72;;
12758;SDS011;20944;47.048;15.390;2023-05-10T14:52:50;2.72;;;2.10;;
12758;SDS011;20944;47.048;15.390;2023-05-10T14:55:19;2.50;;;2.30;;
12758;SDS011;20944;47.048;15.390;2023-05-10T14:57:48;3.10;;;2.10;;